Hickory Hill, Arkansas
Current Conditions -  °F | °C
As of 3:53 AM on Saturday 22 Nov 2014 (Local Time) from KRUE Reporting Station
Haze Haze  
Wind Chill: 10°   Ceiling: 3700
Heat Index: 10°   Visibility: 6mi
Dew Point:   Wind: 0mph
Humidity: 89%   Direction: NA
Pressure: 30.18"   Gusts: NA
Location:  35.227°N, 92.6879°W
Report Text: KRUE 220953Z AUTO 00000KT 6SM BR OVC037 10/08 A3018 RMK AO2 SLP217 T01000083
Loading
Personal Weather Stations






























Interactive Weather Map New forecast layout! Learn more

10-Day Weather Forecast

Advertisements
Track Severe Weather on mobile